Time;durP1;ratioP1;P1;durP2;ratioP2;P2;SDS_P1;SDS_P2;PMS_P1;PMS_P2;Temp;Humidity;BMP_temperature;BMP_pressure;BME280_temperature;BME280_humidity;BME280_pressure;Samples;Min_cycle;Max_cycle;Signal;HPM_P1;HPM_P2
2021/05/27 00:01:40;;;;;;;0.00;0.00;;;13.80;81.40;;;;;;5051669;28;20053;-71
2021/05/27 00:04:06;;;;;;;0.00;0.00;;;13.80;81.50;;;;;;5051623;28;20124;-71
2021/05/27 00:06:32;;;;;;;0.00;0.00;;;13.80;81.50;;;;;;5051900;28;20132;-71
2021/05/27 00:08:59;;;;;;;0.00;0.00;;;13.80;81.50;;;;;;5051496;28;20127;-71
2021/05/27 00:11:25;;;;;;;0.00;0.00;;;13.80;81.50;;;;;;5051383;28;20504;-71
2021/05/27 00:13:51;;;;;;;0.03;0.03;;;13.80;81.50;;;;;;5051063;28;20049;-71
2021/05/27 00:16:18;;;;;;;0.00;0.00;;;13.80;81.50;;;;;;5051581;28;20049;-71
2021/05/27 00:18:44;;;;;;;0.00;0.00;;;13.80;81.50;;;;;;5051499;28;20107;-71
2021/05/27 00:21:11;;;;;;;0.00;0.00;;;13.80;81.60;;;;;;5051891;28;20479;-71
2021/05/27 00:23:37;;;;;;;0.00;0.00;;;13.80;81.60;;;;;;5051658;28;20052;-71
2021/05/27 00:26:03;;;;;;;0.00;0.00;;;13.80;81.50;;;;;;5050724;28;20057;-71
2021/05/27 00:28:30;;;;;;;0.00;0.00;;;13.80;81.60;;;;;;5051505;28;20051;-71
2021/05/27 00:30:56;;;;;;;0.00;0.00;;;13.80;81.60;;;;;;5051535;28;20179;-71
2021/05/27 00:33:22;;;;;;;0.00;0.00;;;13.80;81.50;;;;;;5051668;28;20191;-71
2021/05/27 00:35:49;;;;;;;0.00;0.00;;;13.80;81.50;;;;;;5051361;28;20052;-71
2021/05/27 00:38:15;;;;;;;0.00;0.00;;;13.80;81.50;;;;;;5052319;28;20056;-71
2021/05/27 00:40:41;;;;;;;0.00;0.00;;;13.80;81.50;;;;;;5054913;28;20147;-71
2021/05/27 00:43:08;;;;;;;0.00;0.00;;;13.80;81.40;;;;;;5055030;28;20131;-71
2021/05/27 00:45:34;;;;;;;0.00;0.00;;;13.70;81.30;;;;;;5055278;28;20041;-71
2021/05/27 00:48:00;;;;;;;0.00;0.00;;;13.80;81.30;;;;;;5055061;28;20057;-71
2021/05/27 00:50:27;;;;;;;0.00;0.00;;;13.70;81.20;;;;;;5055175;28;20041;-71
2021/05/27 00:52:55;;;;;;;0.00;0.00;;;13.70;81.10;;;;;;5054796;28;20045;-71
2021/05/27 00:55:24;;;;;;;0.00;0.00;;;13.70;81.00;;;;;;5052927;28;20136;-71
2021/05/27 00:57:51;;;;;;;0.00;0.00;;;13.70;81.00;;;;;;5054590;28;20053;-71
2021/05/27 01:00:21;;;;;;;0.00;0.00;;;13.70;81.00;;;;;;5054649;28;20408;-71
2021/05/27 01:02:48;;;;;;;;;;;13.70;81.00;;;;;;5055527;28;20487;-71
2021/05/27 01:05:17;;;;;;;0.00;0.00;;;13.60;81.10;;;;;;5054491;28;19920;-71
2021/05/27 01:07:44;;;;;;;0.00;0.00;;;13.60;81.00;;;;;;5054470;28;20098;-71
2021/05/27 01:10:13;;;;;;;0.00;0.00;;;13.60;81.10;;;;;;5054842;28;20080;-71
2021/05/27 01:12:39;;;;;;;0.00;0.00;;;13.50;81.10;;;;;;5054599;28;20049;-71
2021/05/27 01:18:16;;;;;;;0.00;0.00;;;13.40;81.70;;;;;;4965472;28;20086;-71
2021/05/27 01:20:44;;;;;;;0.00;0.00;;;13.30;82.10;;;;;;4974764;28;20510;-71
2021/05/27 01:23:13;;;;;;;0.00;0.00;;;13.20;82.70;;;;;;4972827;28;20051;-71
2021/05/27 01:25:41;;;;;;;0.00;0.00;;;13.10;83.00;;;;;;4972675;28;20043;-71
2021/05/27 01:28:08;;;;;;;0.00;0.00;;;13.10;83.00;;;;;;4973398;28;21345;-71
2021/05/27 01:30:34;;;;;;;0.00;0.00;;;13.10;83.30;;;;;;4971834;28;20133;-71
2021/05/27 01:33:01;;;;;;;0.00;0.00;;;13.10;83.00;;;;;;4953601;29;20111;-71
2021/05/27 01:35:27;;;;;;;0.00;0.00;;;13.20;83.00;;;;;;4966283;28;20069;-71
2021/05/27 01:37:54;;;;;;;0.00;0.00;;;13.20;83.00;;;;;;4973087;28;20186;-71
2021/05/27 01:40:23;;;;;;;0.00;0.00;;;13.20;82.90;;;;;;4972426;28;20530;-71
2021/05/27 01:42:50;;;;;;;0.00;0.00;;;13.20;82.70;;;;;;4984641;28;20136;-71
2021/05/27 01:45:18;;;;;;;0.00;0.00;;;13.20;82.80;;;;;;4972890;28;20502;-71
2021/05/27 01:47:44;;;;;;;0.00;0.00;;;13.20;82.60;;;;;;4972654;28;20535;-71
2021/05/27 01:50:19;;;;;;;0.00;0.00;;;13.20;82.50;;;;;;4971531;28;20150;-71
2021/05/27 01:52:47;;;;;;;0.00;0.00;;;13.20;82.30;;;;;;5030747;28;20052;-71
2021/05/27 01:55:14;;;;;;;0.00;0.00;;;13.20;82.30;;;;;;5053546;28;20049;-71
2021/05/27 01:57:40;;;;;;;0.00;0.00;;;13.30;82.10;;;;;;5053457;28;20060;-71
2021/05/27 02:00:07;;;;;;;0.00;0.00;;;13.30;82.00;;;;;;5053927;28;20078;-69
2021/05/27 02:02:34;;;;;;;0.00;0.00;;;13.30;81.80;;;;;;5053873;28;20524;-69
2021/05/27 02:05:00;;;;;;;0.00;0.00;;;13.30;81.70;;;;;;5053133;28;20419;-69
2021/05/27 02:07:29;;;;;;;0.00;0.00;;;13.30;81.50;;;;;;5053947;28;20134;-69
2021/05/27 02:09:56;;;;;;;0.00;0.00;;;13.30;81.50;;;;;;5053786;28;20626;-68
2021/05/27 02:12:22;;;;;;;0.00;0.00;;;13.40;81.50;;;;;;5053760;28;20056;-69
2021/05/27 02:14:49;;;;;;;0.05;0.05;;;13.40;81.30;;;;;;5053358;28;20049;-69
2021/05/27 02:17:15;;;;;;;0.00;0.00;;;13.40;81.00;;;;;;5053470;28;20139;-69
2021/05/27 02:19:41;;;;;;;0.00;0.00;;;13.40;80.90;;;;;;5053196;28;20658;-69
2021/05/27 02:22:08;;;;;;;0.00;0.00;;;13.40;80.90;;;;;;5053392;28;20041;-69
2021/05/27 02:24:34;;;;;;;0.00;0.00;;;13.40;81.10;;;;;;5053523;28;20081;-69
2021/05/27 02:27:00;;;;;;;0.00;0.00;;;13.40;81.20;;;;;;5053016;28;20048;-69
2021/05/27 02:29:26;;;;;;;0.00;0.00;;;13.40;81.20;;;;;;5053037;28;20132;-69
2021/05/27 02:31:53;;;;;;;0.00;0.00;;;13.40;81.20;;;;;;5053266;28;20571;-69
2021/05/27 02:34:19;;;;;;;0.00;0.00;;;13.40;81.20;;;;;;5053017;28;20134;-69
2021/05/27 02:36:45;;;;;;;0.00;0.00;;;13.40;81.20;;;;;;5053367;28;20132;-69
2021/05/27 02:39:12;;;;;;;0.00;0.00;;;13.40;81.20;;;;;;5052798;28;20061;-69
2021/05/27 02:41:39;;;;;;;0.00;0.00;;;13.40;81.10;;;;;;5056095;28;20124;-69
2021/05/27 02:44:06;;;;;;;0.00;0.00;;;13.40;81.10;;;;;;5052838;28;20041;-69
2021/05/27 02:46:32;;;;;;;0.00;0.00;;;13.40;81.00;;;;;;5052636;28;20507;-69
2021/05/27 02:48:58;;;;;;;0.00;0.00;;;13.40;80.90;;;;;;5052665;28;20577;-69
2021/05/27 02:51:25;;;;;;;0.00;0.00;;;13.40;80.80;;;;;;5052673;28;20136;-69
2021/05/27 02:53:51;;;;;;;0.00;0.00;;;13.40;80.70;;;;;;5052881;28;20052;-68
2021/05/27 02:56:18;;;;;;;0.00;0.00;;;13.40;80.70;;;;;;5052438;28;20041;-69
2021/05/27 02:58:45;;;;;;;0.00;0.00;;;13.40;80.70;;;;;;5052910;28;20041;-69
2021/05/27 03:01:12;;;;;;;0.00;0.00;;;13.40;80.70;;;;;;5052113;28;20049;-68
2021/05/27 03:03:38;;;;;;;0.00;0.00;;;13.40;80.60;;;;;;5052433;28;20404;-69
2021/05/27 03:06:05;;;;;;;0.00;0.00;;;13.40;80.50;;;;;;5052638;28;20041;-69
2021/05/27 03:08:31;;;;;;;0.00;0.00;;;13.40;80.40;;;;;;5052557;28;20128;-68
2021/05/27 03:10:58;;;;;;;0.10;0.10;;;13.40;80.30;;;;;;5052550;28;20551;-68
2021/05/27 03:13:24;;;;;;;0.00;0.00;;;13.40;80.30;;;;;;5052628;28;20064;-68
2021/05/27 03:15:51;;;;;;;0.00;0.00;;;13.40;80.00;;;;;;5051930;28;20530;-69
2021/05/27 03:18:17;;;;;;;0.00;0.00;;;13.30;79.80;;;;;;5051589;28;20063;-69
2021/05/27 03:20:44;;;;;;;0.00;0.00;;;13.30;79.90;;;;;;5052541;28;20059;-68
2021/05/27 03:23:11;;;;;;;0.05;0.05;;;13.30;80.00;;;;;;5052230;28;20055;-68
2021/05/27 03:25:37;;;;;;;0.00;0.00;;;13.30;80.00;;;;;;5052196;28;20048;-68
2021/05/27 03:28:03;;;;;;;0.00;0.00;;;13.30;79.90;;;;;;5052612;28;20052;-68
2021/05/27 03:30:30;;;;;;;0.00;0.00;;;13.30;79.90;;;;;;5051726;28;20045;-68
2021/05/27 03:32:56;;;;;;;0.00;0.00;;;13.30;79.70;;;;;;5051782;28;20097;-69
2021/05/27 03:35:23;;;;;;;0.00;0.00;;;13.30;79.80;;;;;;5051677;28;20473;-69
2021/05/27 03:37:50;;;;;;;0.00;0.00;;;13.30;79.80;;;;;;5051963;28;20126;-68
2021/05/27 03:40:17;;;;;;;0.00;0.00;;;13.30;79.80;;;;;;5054627;28;20154;-69
2021/05/27 03:42:49;;;;;;;0.00;0.00;;;13.30;79.80;;;;;;5038396;28;20091;-68
2021/05/27 03:45:22;;;;;;;0.00;0.00;;;13.30;79.80;;;;;;5051634;28;20131;-68
2021/05/27 03:47:49;;;;;;;0.00;0.00;;;13.30;79.80;;;;;;5051536;28;20063;-69
2021/05/27 03:50:17;;;;;;;0.00;0.00;;;13.30;79.70;;;;;;5051843;28;20052;-69
2021/05/27 03:52:45;;;;;;;0.00;0.00;;;13.30;80.70;;;;;;5051551;28;20211;-68
2021/05/27 03:55:14;;;;;;;0.00;0.00;;;13.30;79.70;;;;;;5051562;28;20113;-69
2021/05/27 03:57:43;;;;;;;0.00;0.00;;;13.30;79.70;;;;;;5051348;28;20064;-69
2021/05/27 04:02:59;;;;;;;0.00;0.00;;;13.30;79.70;;;;;;5051766;28;20125;-69
2021/05/27 04:08:10;;;;;;;0.00;0.00;;;13.30;79.60;;;;;;5051941;28;20128;-68
2021/05/27 04:10:36;;;;;;;0.00;0.00;;;13.30;79.70;;;;;;5051442;28;20049;-69
2021/05/27 04:13:03;;;;;;;0.00;0.00;;;13.30;79.70;;;;;;5047234;28;20103;-68
2021/05/27 04:15:33;;;;;;;0.00;0.00;;;13.20;79.70;;;;;;5055126;28;20124;-68
2021/05/27 04:18:00;;;;;;;0.00;0.00;;;13.20;79.70;;;;;;5055477;28;20113;-68
2021/05/27 04:20:35;;;;;;;0.00;0.00;;;13.20;79.70;;;;;;5055057;28;20120;-68
2021/05/27 04:23:03;;;;;;;0.00;0.00;;;13.20;79.80;;;;;;5055212;28;20124;-69
2021/05/27 04:25:29;;;;;;;0.00;0.00;;;13.20;79.80;;;;;;5055450;28;20074;-68
2021/05/27 04:27:57;;;;;;;0.00;0.00;;;13.20;79.70;;;;;;5055778;28;20060;-69
2021/05/27 04:30:25;;;;;;;0.00;0.00;;;13.20;79.70;;;;;;5054709;28;20135;-69
2021/05/27 04:33:07;;;;;;;0.00;0.00;;;13.20;79.70;;;;;;5054925;28;20056;-69
2021/05/27 04:35:38;;;;;;;0.00;0.00;;;13.20;79.60;;;;;;5054885;28;20069;-69
2021/05/27 04:38:04;;;;;;;;;;;13.20;80.50;;;;;;5055997;28;20049;-69
2021/05/27 04:40:31;;;;;;;0.00;0.00;;;13.20;79.50;;;;;;5054308;28;20011;-69
2021/05/27 04:42:57;;;;;;;0.00;0.00;;;13.10;79.40;;;;;;5054329;28;20045;-69
2021/05/27 04:45:24;;;;;;;0.00;0.00;;;13.20;79.50;;;;;;5053752;28;20105;-69
2021/05/27 04:47:51;;;;;;;0.00;0.00;;;13.20;79.60;;;;;;5054091;28;20103;-69
2021/05/27 04:50:17;;;;;;;0.00;0.00;;;13.20;79.50;;;;;;5054459;28;20045;-70
2021/05/27 04:52:44;;;;;;;0.00;0.00;;;13.20;80.40;;;;;;5055167;28;20144;-70
2021/05/27 04:55:13;;;;;;;0.00;0.00;;;13.20;79.50;;;;;;5054755;28;20192;-70
2021/05/27 04:57:40;;;;;;;0.00;0.00;;;13.20;79.60;;;;;;5054781;28;20128;-69
2021/05/27 05:00:10;;;;;;;0.00;0.00;;;13.20;79.70;;;;;;5054746;28;20196;-69
2021/05/27 05:02:37;;;;;;;0.00;0.00;;;13.20;79.70;;;;;;5053528;28;20255;-69
2021/05/27 05:05:06;;;;;;;0.00;0.00;;;13.30;79.80;;;;;;5054841;28;20131;-69
2021/05/27 05:07:32;;;;;;;0.00;0.00;;;13.30;79.80;;;;;;5054453;28;20090;-68
2021/05/27 05:09:58;;;;;;;0.00;0.00;;;13.30;79.80;;;;;;5054592;28;20128;-69
2021/05/27 05:12:25;;;;;;;0.00;0.00;;;13.30;79.80;;;;;;5054710;28;20136;-69
2021/05/27 05:14:51;;;;;;;0.00;0.00;;;13.30;81.00;;;;;;5054353;28;20045;-69
2021/05/27 05:17:18;;;;;;;0.00;0.00;;;13.30;80.10;;;;;;5054360;28;20056;-70
2021/05/27 05:19:44;;;;;;;0.00;0.00;;;13.30;80.10;;;;;;5054267;28;20053;-69
2021/05/27 05:22:10;;;;;;;0.00;0.00;;;13.30;80.10;;;;;;5053850;28;20584;-68
2021/05/27 05:24:37;;;;;;;0.00;0.00;;;13.40;80.20;;;;;;5054021;28;20088;-69
2021/05/27 05:27:04;;;;;;;0.00;0.00;;;13.40;80.20;;;;;;5053510;28;20478;-69
2021/05/27 05:29:30;;;;;;;0.00;0.00;;;13.40;80.00;;;;;;5054203;28;20215;-69
2021/05/27 05:31:56;;;;;;;0.00;0.00;;;13.40;79.80;;;;;;5053374;28;20099;-69
2021/05/27 05:34:23;;;;;;;0.00;0.00;;;13.40;79.60;;;;;;5054085;28;20059;-69
2021/05/27 05:36:49;;;;;;;0.00;0.00;;;13.40;79.50;;;;;;5034876;28;20094;-69
2021/05/27 05:39:15;;;;;;;0.00;0.00;;;13.50;79.50;;;;;;5053733;28;20053;-69
2021/05/27 05:41:42;;;;;;;0.00;0.00;;;13.50;79.30;;;;;;5053459;28;20136;-69
2021/05/27 05:44:08;;;;;;;0.00;0.00;;;13.50;79.00;;;;;;5053450;28;20163;-69
2021/05/27 05:46:34;;;;;;;0.00;0.00;;;13.50;78.80;;;;;;5053656;28;20456;-70
2021/05/27 05:49:01;;;;;;;0.08;0.08;;;13.50;78.60;;;;;;5053313;28;20119;-69
2021/05/27 05:51:27;;;;;;;0.00;0.00;;;13.60;78.20;;;;;;5053696;28;20056;-70
2021/05/27 05:53:53;;;;;;;0.00;0.00;;;13.60;78.10;;;;;;5053995;28;20060;-69
2021/05/27 05:56:20;;;;;;;0.00;0.00;;;13.60;77.70;;;;;;5053394;28;20123;-69
2021/05/27 05:58:46;;;;;;;0.00;0.00;;;13.60;77.80;;;;;;5052546;28;20048;-69
2021/05/27 06:01:13;;;;;;;0.00;0.00;;;13.70;78.00;;;;;;5053268;28;20045;-69
2021/05/27 06:03:39;;;;;;;0.00;0.00;;;13.70;77.90;;;;;;5052803;28;20623;-70
2021/05/27 06:06:09;;;;;;;0.00;0.00;;;13.70;77.20;;;;;;5053557;28;20049;-70
2021/05/27 06:08:36;;;;;;;0.00;0.00;;;13.70;77.20;;;;;;5053512;28;20072;-70
2021/05/27 06:11:02;;;;;;;0.00;0.00;;;13.70;76.80;;;;;;5052818;28;21021;-70
2021/05/27 06:13:28;;;;;;;0.00;0.00;;;13.70;76.90;;;;;;5052756;28;20049;-70
2021/05/27 06:15:55;;;;;;;0.00;0.00;;;13.80;76.90;;;;;;5053064;28;20128;-70
2021/05/27 06:18:21;;;;;;;0.00;0.00;;;13.80;76.70;;;;;;5052825;28;20134;-70
2021/05/27 06:20:47;;;;;;;0.00;0.00;;;13.90;76.80;;;;;;5052896;28;20179;-70
2021/05/27 06:23:14;;;;;;;0.00;0.00;;;13.80;75.40;;;;;;5053152;28;20102;-70
2021/05/27 06:25:40;;;;;;;0.00;0.00;;;13.80;75.60;;;;;;5052669;28;20049;-71
2021/05/27 06:28:07;;;;;;;0.00;0.00;;;13.90;75.70;;;;;;5053120;28;20144;-69
2021/05/27 06:30:33;;;;;;;0.00;0.00;;;13.90;75.30;;;;;;5052840;28;20519;-70
2021/05/27 06:33:01;;;;;;;0.00;0.00;;;13.90;75.20;;;;;;5052840;28;20067;-70
2021/05/27 06:35:27;;;;;;;0.00;0.00;;;14.00;75.60;;;;;;5052248;28;20056;-70
2021/05/27 06:37:54;;;;;;;0.00;0.00;;;14.10;75.90;;;;;;5053202;28;20206;-70
2021/05/27 06:40:23;;;;;;;0.00;0.00;;;14.10;74.80;;;;;;5051930;28;20460;-70
2021/05/27 06:42:49;;;;;;;0.00;0.00;;;14.20;74.70;;;;;;5053069;28;20153;-70
2021/05/27 06:45:17;;;;;;;0.00;0.00;;;14.20;74.50;;;;;;5052943;28;20102;-70
2021/05/27 06:47:45;;;;;;;0.00;0.00;;;14.30;74.50;;;;;;5052527;28;20484;-70
2021/05/27 06:50:12;;;;;;;0.00;0.00;;;14.30;74.00;;;;;;5052281;28;20568;-71
2021/05/27 06:52:38;;;;;;;0.00;0.00;;;14.30;72.90;;;;;;5052292;28;20179;-71
2021/05/27 06:55:06;;;;;;;0.00;0.00;;;14.40;73.10;;;;;;5051801;28;20540;-70
2021/05/27 06:57:34;;;;;;;0.00;0.00;;;14.40;73.40;;;;;;5052048;28;20079;-70
2021/05/27 07:00:00;;;;;;;0.00;0.00;;;14.50;73.60;;;;;;5052526;28;20064;-70
2021/05/27 07:02:26;;;;;;;0.00;0.00;;;14.60;73.70;;;;;;5051800;28;20393;-70
2021/05/27 07:04:53;;;;;;;0.00;0.00;;;14.80;73.80;;;;;;5052096;28;20127;-70
2021/05/27 07:07:19;;;;;;;0.00;0.00;;;14.80;73.30;;;;;;5052497;28;20110;-70
2021/05/27 07:09:45;;;;;;;0.00;0.00;;;14.90;73.10;;;;;;5051880;28;20081;-70
2021/05/27 07:12:12;;;;;;;0.00;0.00;;;14.90;70.70;;;;;;5052442;28;20091;-70
2021/05/27 07:14:38;;;;;;;0.00;0.00;;;14.90;70.10;;;;;;5051976;28;20198;-70
2021/05/27 07:17:04;;;;;;;0.00;0.00;;;15.00;70.40;;;;;;5051753;28;20190;-70
2021/05/27 07:19:32;;;;;;;0.00;0.00;;;15.00;70.70;;;;;;5051320;28;20044;-69
2021/05/27 07:22:00;;;;;;;0.00;0.00;;;15.00;68.30;;;;;;5052277;28;20094;-71
2021/05/27 07:24:26;;;;;;;0.00;0.00;;;15.00;68.80;;;;;;5033781;28;20496;-70
2021/05/27 07:26:52;;;;;;;0.00;0.00;;;15.00;69.40;;;;;;5051785;28;20056;-70
2021/05/27 07:29:19;;;;;;;0.00;0.00;;;15.10;69.20;;;;;;5052103;28;20045;-70
2021/05/27 07:31:45;;;;;;;0.00;0.00;;;15.10;69.00;;;;;;5052039;28;20052;-70
2021/05/27 07:34:11;;;;;;;0.00;0.00;;;15.10;69.00;;;;;;5051773;28;20048;-70
2021/05/27 07:36:49;;;;;;;0.00;0.00;;;15.00;68.90;;;;;;5050736;28;20124;-70
2021/05/27 07:39:15;;;;;;;0.00;0.00;;;15.10;69.40;;;;;;5033308;28;20080;-70
2021/05/27 07:41:41;;;;;;;0.00;0.00;;;15.10;69.10;;;;;;5054619;28;20127;-70
2021/05/27 07:44:08;;;;;;;0.00;0.00;;;15.10;69.20;;;;;;5051585;28;20095;-70
2021/05/27 07:46:34;;;;;;;0.00;0.00;;;15.10;69.10;;;;;;5051351;28;20186;-70
2021/05/27 07:49:01;;;;;;;0.00;0.00;;;15.20;69.10;;;;;;5050225;28;20055;-70
2021/05/27 07:51:27;;;;;;;0.00;0.00;;;15.20;69.00;;;;;;5051251;28;20530;-71
2021/05/27 07:53:53;;;;;;;0.00;0.00;;;15.30;68.40;;;;;;5051225;28;20052;-70
2021/05/27 07:56:20;;;;;;;0.00;0.00;;;15.30;68.20;;;;;;5051949;28;20059;-70
2021/05/27 07:58:46;;;;;;;0.00;0.00;;;15.40;68.50;;;;;;5051534;28;20076;-70
2021/05/27 08:01:15;;;;;;;0.00;0.00;;;15.40;68.50;;;;;;5043689;28;20048;-70
2021/05/27 08:03:41;;;;;;;0.00;0.00;;;15.50;68.40;;;;;;5047174;28;20111;-70
2021/05/27 08:06:07;;;;;;;0.00;0.00;;;15.60;67.90;;;;;;5047792;28;20492;-70
2021/05/27 08:08:34;;;;;;;0.00;0.00;;;15.60;66.00;;;;;;5047225;28;20092;-70
2021/05/27 08:11:00;;;;;;;0.00;0.00;;;15.60;65.70;;;;;;5047414;28;20520;-70
2021/05/27 08:13:28;;;;;;;0.00;0.00;;;15.60;65.90;;;;;;5047435;28;20053;-70
2021/05/27 08:15:55;;;;;;;0.00;0.00;;;15.70;66.50;;;;;;5047526;28;20657;-70
2021/05/27 08:18:21;;;;;;;0.00;0.00;;;15.80;66.70;;;;;;5047455;28;20500;-70
2021/05/27 08:20:48;;;;;;;0.00;0.00;;;15.80;64.30;;;;;;5047817;28;20088;-70
2021/05/27 08:23:14;;;;;;;0.00;0.00;;;15.80;63.70;;;;;;5046967;28;20052;-70
2021/05/27 08:25:40;;;;;;;0.00;0.00;;;15.80;63.70;;;;;;5047481;28;20527;-70
2021/05/27 08:28:07;;;;;;;0.00;0.00;;;15.80;64.10;;;;;;5029052;28;20067;-70
2021/05/27 08:30:33;;;;;;;0.00;0.00;;;15.80;64.50;;;;;;5047437;28;20087;-70
2021/05/27 08:32:59;;;;;;;0.00;0.00;;;15.90;64.20;;;;;;5047602;28;20080;-70
2021/05/27 08:35:26;;;;;;;0.00;0.00;;;16.00;64.50;;;;;;5047783;28;20124;-70
2021/05/27 08:37:52;;;;;;;0.00;0.00;;;16.10;64.40;;;;;;5047209;28;20053;-70
2021/05/27 08:40:19;;;;;;;0.00;0.00;;;16.30;63.80;;;;;;5050333;28;20053;-70
2021/05/27 08:42:45;;;;;;;0.00;0.00;;;16.40;63.10;;;;;;5028760;28;20052;-70
2021/05/27 08:45:15;;;;;;;0.00;0.00;;;16.50;61.00;;;;;;5047649;28;20060;-70
2021/05/27 08:47:45;;;;;;;0.00;0.00;;;16.60;60.90;;;;;;5046326;28;20045;-70
2021/05/27 08:50:12;;;;;;;0.00;0.00;;;16.60;61.00;;;;;;5029177;28;20053;-70
2021/05/27 08:52:38;;;;;;;0.00;0.00;;;16.60;60.30;;;;;;5046840;28;20397;-70
2021/05/27 08:55:05;;;;;;;0.00;0.00;;;16.60;60.50;;;;;;5047032;28;20103;-70
2021/05/27 08:57:35;;;;;;;0.00;0.00;;;16.60;59.90;;;;;;5047549;28;20045;-70
2021/05/27 09:00:03;;;;;;;0.00;0.00;;;16.60;59.50;;;;;;5050109;28;20163;-70
2021/05/27 09:02:30;;;;;;;0.00;0.00;;;16.70;59.60;;;;;;5051123;28;20559;-70
2021/05/27 09:05:14;;;;;;;0.00;0.00;;;16.80;59.80;;;;;;5049015;28;20519;-70
2021/05/27 09:07:42;;;;;;;0.00;0.00;;;17.00;56.90;;;;;;5048087;28;20124;-70
2021/05/27 09:10:11;;;;;;;0.00;0.00;;;17.20;58.00;;;;;;5050642;28;20068;-70
2021/05/27 09:12:39;;;;;;;0.00;0.00;;;17.30;55.30;;;;;;5016753;28;20107;-70
2021/05/27 09:15:20;;;;;;;0.00;0.00;;;17.30;55.40;;;;;;5049899;28;20848;-70
2021/05/27 09:17:52;;;;;;;0.00;0.00;;;17.40;55.00;;;;;;5050092;28;20397;-70
2021/05/27 09:20:24;;;;;;;0.00;0.00;;;17.40;55.50;;;;;;5037202;28;20045;-70
2021/05/27 09:23:17;;;;;;;0.00;0.00;;;17.50;55.80;;;;;;5049591;28;20823;-70
2021/05/27 09:25:46;;;;;;;0.00;0.00;;;17.70;56.50;;;;;;5031768;28;20190;-71
2021/05/27 09:28:39;;;;;;;0.00;0.00;;;17.90;57.10;;;;;;5050195;28;20552;-70
2021/05/27 09:31:11;;;;;;;0.00;0.00;;;18.20;57.00;;;;;;5045683;28;20132;-70
2021/05/27 09:33:38;;;;;;;0.00;0.00;;;18.50;56.60;;;;;;5049769;28;20056;-70
2021/05/27 09:36:09;;;;;;;0.00;0.00;;;18.70;55.80;;;;;;5050164;28;20061;-70
2021/05/27 09:38:47;;;;;;;0.00;0.00;;;18.90;54.40;;;;;;5049831;28;20492;-70
2021/05/27 09:41:18;;;;;;;0.00;0.00;;;19.00;53.90;;;;;;5052178;28;20066;-70
2021/05/27 09:43:50;;;;;;;0.00;0.00;;;18.90;52.20;;;;;;5050184;28;20057;-70
2021/05/27 09:46:17;;;;;;;0.00;0.00;;;18.70;51.10;;;;;;5050530;28;20048;-70
2021/05/27 09:48:45;;;;;;;0.00;0.00;;;18.50;52.20;;;;;;5049782;28;20122;-70
2021/05/27 09:51:28;;;;;;;0.00;0.00;;;18.40;52.60;;;;;;5050377;28;20207;-70
2021/05/27 09:53:56;;;;;;;0.00;0.00;;;18.40;53.70;;;;;;5049520;28;20053;-72
2021/05/27 09:56:34;;;;;;;0.00;0.00;;;18.50;54.50;;;;;;5050026;28;20045;-72
2021/05/27 09:59:01;;;;;;;0.00;0.00;;;18.60;52.30;;;;;;5049975;28;20227;-72
2021/05/27 10:01:27;;;;;;;0.00;0.00;;;18.60;51.80;;;;;;5049981;28;20045;-72
2021/05/27 10:04:11;;;;;;;0.00;0.00;;;18.50;51.10;;;;;;5048700;28;20053;-72
2021/05/27 10:06:37;;;;;;;0.00;0.00;;;18.30;51.60;;;;;;5135718;22;20047;-70
2021/05/27 10:09:06;;;;;;;0.00;0.00;;;18.30;51.90;;;;;;5109336;28;20433;-70
2021/05/27 10:11:32;;;;;;;0.00;0.00;;;18.50;52.80;;;;;;5109517;28;20051;-70
2021/05/27 10:14:00;;;;;;;0.00;0.00;;;18.60;53.10;;;;;;5110197;28;20043;-70
2021/05/27 10:16:26;;;;;;;0.00;0.00;;;18.50;49.80;;;;;;5110014;28;20409;-70
2021/05/27 10:18:55;;;;;;;0.00;0.00;;;18.30;51.00;;;;;;5110274;28;20082;-70
2021/05/27 10:21:23;;;;;;;0.00;0.00;;;18.40;51.40;;;;;;5110220;28;20100;-70
2021/05/27 10:23:50;;;;;;;0.00;0.00;;;18.60;52.50;;;;;;5109163;28;20055;-70
2021/05/27 10:26:17;;;;;;;0.00;0.00;;;18.80;52.50;;;;;;5109656;28;20557;-70
2021/05/27 10:28:53;;;;;;;0.00;0.00;;;18.80;51.40;;;;;;5109496;28;20124;-70
2021/05/27 10:31:24;;;;;;;0.00;0.00;;;18.80;51.10;;;;;;5109855;28;20119;-70
2021/05/27 10:33:52;;;;;;;0.00;0.00;;;18.70;52.00;;;;;;5109547;28;20079;-70
2021/05/27 10:36:19;;;;;;;0.00;0.00;;;18.80;52.00;;;;;;5109946;28;20566;-70
2021/05/27 10:38:49;;;;;;;0.00;0.00;;;18.90;52.70;;;;;;5111591;27;20113;-70
2021/05/27 10:41:16;;;;;;;;;;;19.00;51.60;;;;;;5127385;27;20066;-70
2021/05/27 10:44:03;;;;;;;0.00;0.00;;;18.90;51.00;;;;;;5127665;27;20014;-69
2021/05/27 10:46:54;;;;;;;0.00;0.00;;;18.80;52.40;;;;;;5123553;27;20066;-69
2021/05/27 10:49:38;;;;;;;0.00;0.00;;;18.90;53.40;;;;;;5099923;27;20047;-69
2021/05/27 10:52:26;;;;;;;0.00;0.00;;;19.00;55.10;;;;;;5127679;27;20605;-70
2021/05/27 10:54:53;;;;;;;0.00;0.00;;;19.20;53.70;;;;;;5107386;27;20050;-70
2021/05/27 10:57:41;;;;;;;0.00;0.00;;;19.20;53.10;;;;;;5127473;27;20545;-70
2021/05/27 11:00:13;;;;;;;0.00;0.00;;;19.20;51.10;;;;;;5129021;27;20050;-70
2021/05/27 11:02:39;;;;;;;0.00;0.00;;;19.10;50.50;;;;;;5127455;27;20122;-70
2021/05/27 11:05:23;;;;;;;0.00;0.00;;;18.80;51.20;;;;;;5110779;27;20077;-70
2021/05/27 11:08:18;;;;;;;0.00;0.00;;;18.70;51.20;;;;;;5109116;28;20131;-70
2021/05/27 11:10:45;;;;;;;0.00;0.00;;;18.40;51.70;;;;;;5098237;28;20188;-70
2021/05/27 11:13:11;;;;;;;0.00;0.00;;;18.30;52.20;;;;;;5108976;28;20066;-70
2021/05/27 11:16:04;;;;;;;0.00;0.00;;;18.20;53.00;;;;;;5108641;28;20422;-70
2021/05/27 11:18:36;;;;;;;0.00;0.00;;;18.20;53.40;;;;;;5110376;27;20069;-70
2021/05/27 11:21:31;;;;;;;0.00;0.00;;;18.20;53.40;;;;;;5093312;28;20058;-70
2021/05/27 11:27:43;;;;;;;0.00;0.00;;;18.10;54.10;;;;;;5113984;27;20414;-70
2021/05/27 11:30:26;;;;;;;0.00;0.00;;;18.00;54.90;;;;;;5025184;28;20115;-70
2021/05/27 11:32:56;;;;;;;0.00;0.00;;;17.90;55.40;;;;;;5025160;28;20140;-70
2021/05/27 11:35:28;;;;;;;0.00;0.00;;;17.80;55.60;;;;;;5025433;28;20057;-70
2021/05/27 11:37:55;;;;;;;0.00;0.00;;;17.70;55.60;;;;;;5032524;28;20064;-70
2021/05/27 11:40:31;;;;;;;0.00;0.00;;;17.60;55.80;;;;;;5026189;28;20053;-70
2021/05/27 11:42:57;;;;;;;0.00;0.00;;;17.50;56.40;;;;;;5028171;28;20056;-70
2021/05/27 11:45:25;;;;;;;0.00;0.00;;;17.50;57.70;;;;;;5027686;28;20503;-70
2021/05/27 11:48:08;;;;;;;0.00;0.00;;;17.40;57.30;;;;;;5050395;28;20126;-70
2021/05/27 11:50:35;;;;;;;0.00;0.00;;;17.30;56.40;;;;;;5048555;28;20044;-70
2021/05/27 11:53:01;;;;;;;0.00;0.00;;;17.30;56.80;;;;;;5049859;28;20045;-70
2021/05/27 11:55:28;;;;;;;0.00;0.00;;;17.30;57.10;;;;;;5047808;28;20049;-70
2021/05/27 11:57:54;;;;;;;0.00;0.00;;;17.20;56.60;;;;;;5050739;28;20056;-71
2021/05/27 12:00:21;;;;;;;0.00;0.00;;;17.20;56.90;;;;;;5029678;28;20049;-70
2021/05/27 12:02:52;;;;;;;0.00;0.00;;;17.20;57.20;;;;;;5050575;28;20155;-71
2021/05/27 12:05:28;;;;;;;0.00;0.00;;;17.20;57.60;;;;;;5094656;28;20084;-70
2021/05/27 12:08:03;;;;;;;0.00;0.00;;;17.20;57.00;;;;;;5108643;28;20054;-70
2021/05/27 12:10:32;;;;;;;0.00;0.00;;;17.00;57.00;;;;;;5095212;28;20090;-70
2021/05/27 12:12:59;;;;;;;0.00;0.00;;;16.90;57.40;;;;;;5108420;28;20052;-70
2021/05/27 12:15:27;;;;;;;0.00;0.00;;;16.90;58.00;;;;;;5108025;28;20390;-70
2021/05/27 12:17:56;;;;;;;0.00;0.00;;;16.90;57.90;;;;;;5108360;28;20134;-70
2021/05/27 12:20:29;;;;;;;0.00;0.00;;;16.90;57.60;;;;;;5108401;28;20043;-70
2021/05/27 12:23:06;;;;;;;0.00;0.00;;;16.80;57.90;;;;;;5108417;28;20480;-71
2021/05/27 12:25:34;;;;;;;0.00;0.00;;;16.90;58.30;;;;;;5107502;28;20044;-70
2021/05/27 12:28:03;;;;;;;0.00;0.00;;;16.80;57.70;;;;;;5108389;28;20101;-70
2021/05/27 12:30:32;;;;;;;0.00;0.00;;;16.80;58.00;;;;;;5108399;28;20096;-70
2021/05/27 12:33:00;;;;;;;0.00;0.00;;;16.80;57.60;;;;;;5090051;28;20120;-70
2021/05/27 12:35:29;;;;;;;0.00;0.00;;;16.70;57.50;;;;;;5111382;28;20130;-70
2021/05/27 12:37:57;;;;;;;0.00;0.00;;;16.70;58.10;;;;;;5112718;28;20047;-70
2021/05/27 12:40:28;;;;;;;0.00;0.00;;;16.80;57.90;;;;;;5111946;28;20130;-70
2021/05/27 12:42:57;;;;;;;0.00;0.00;;;16.80;58.20;;;;;;5112129;28;20043;-70
2021/05/27 12:45:26;;;;;;;0.00;0.00;;;16.80;58.40;;;;;;5116449;27;20490;-70
2021/05/27 12:48:16;;;;;;;0.00;0.00;;;16.90;58.70;;;;;;5108613;28;20474;-71
2021/05/27 12:50:46;;;;;;;0.00;0.00;;;16.90;58.40;;;;;;5112095;28;20410;-70
2021/05/27 12:53:38;;;;;;;0.00;0.00;;;16.90;58.00;;;;;;5111970;28;20044;-70
2021/05/27 12:56:22;;;;;;;0.00;0.00;;;16.90;57.80;;;;;;5111753;28;20039;-70
2021/05/27 12:58:54;;;;;;;0.00;0.00;;;16.90;57.90;;;;;;5111741;28;20056;-70
2021/05/27 13:01:37;;;;;;;0.00;0.00;;;17.00;58.30;;;;;;5111910;28;20044;-70
2021/05/27 13:04:08;;;;;;;0.00;0.00;;;17.00;57.70;;;;;;5093361;28;20047;-71
2021/05/27 13:06:47;;;;;;;0.00;0.00;;;17.10;57.60;;;;;;5110639;28;20533;-71
2021/05/27 13:09:19;;;;;;;0.00;0.00;;;17.10;57.80;;;;;;5111163;28;20181;-71